As Constantina — CQIU9 — position and weather

sailwx.info

Track history (hours):
 
Tides and Currents Weather Stations Pressure Air Temp Water Temp Dewpoint Dewpoint Depression Visibility Wind Speed Wind Dir Waves Ship Positions

As Constantina

Last reported at 2018-Aug-07 18:37 UTC. Time now 2018-Aug-14 23:42 UTC.
Position N 31°06' E 122°19'.

Length 733 m; draft 9.8 m.

Type: Ship (hazmat cat A). MMSI: 255806075.

Date/timePositionNaut miles runAvg speedWind from/ knotsBaromVisibWave heightAir tempDewpointWater temp
2018-Aug-07 18:37N 31°06' E 122°19'32 1.5
2018-Aug-06 21:18N 31°19' E 121°45'310.1
2018-Aug-06 20:59N 31°17' E 121°48'5 9.8
2018-Aug-06 20:28N 31°16' E 121°54'714.1
2018-Aug-06 20:00N 31°15' E 122°01'710.0
2018-Aug-06 19:19N 31°12' E 122°09'8 7.1
2018-Aug-06 18:13N 31°08' E 122°16'2 7.8
2018-Aug-06 18:00N 31°07' E 122°18'  
2018-Aug-03 20:55N 35°00' E 129°10'410.2
2018-Aug-03 20:30N 35°04' E 129°07'2 4.3
2018-Aug-03 20:01N 35°06' E 129°06'0 0.0
2018-Aug-03 19:31N 35°06' E 129°06'0 0.0
2018-Aug-03 19:01N 35°06' E 129°06'0 0.0
2018-Aug-03 18:31N 35°06' E 129°06'0 0.0
2018-Aug-03 18:01N 35°06' E 129°06'0 0.0
2018-Aug-03 17:31N 35°06' E 129°06'0 0.0
2018-Aug-03 17:01N 35°06' E 129°06'0 0.0
2018-Aug-03 16:31N 35°06' E 129°06'0 0.0
2018-Aug-03 16:01N 35°06' E 129°06'0 0.0
2018-Aug-03 15:31N 35°06' E 129°06'0 0.0
2018-Aug-03 15:01N 35°06' E 129°06'0 0.0
2018-Aug-03 14:31N 35°06' E 129°06'0 0.0
2018-Aug-03 14:01N 35°06' E 129°06'0 0.0
2018-Aug-03 13:31N 35°06' E 129°06'0 0.0
2018-Aug-03 13:01N 35°06' E 129°06'0 0.0
2018-Aug-03 12:31N 35°06' E 129°06'0 0.0
2018-Aug-03 12:01N 35°06' E 129°06'0 0.0
2018-Aug-03 11:31N 35°06' E 129°06'0 0.0
2018-Aug-03 11:01N 35°06' E 129°06'0 0.0
2018-Aug-03 10:31N 35°06' E 129°06'0 0.0
2018-Aug-03 10:01N 35°06' E 129°06'0 0.0
2018-Aug-03 09:31N 35°06' E 129°06'0 0.0
2018-Aug-03 09:01N 35°06' E 129°06'0 0.0
2018-Aug-03 08:31N 35°06' E 129°06'0 0.0
2018-Aug-03 08:01N 35°06' E 129°06'0 0.0
2018-Aug-03 07:31N 35°06' E 129°06'0 0.0
2018-Aug-03 07:00N 35°06' E 129°06'0 0.0
2018-Aug-03 06:30N 35°06' E 129°06'0 0.0
2018-Aug-03 06:01N 35°06' E 129°06'0 0.0
2018-Aug-03 05:31N 35°06' E 129°06'0 0.0
2018-Aug-03 05:01N 35°06' E 129°06'0 0.0
2018-Aug-03 04:31N 35°06' E 129°06'0 0.0
2018-Aug-03 04:01N 35°06' E 129°06'0 0.0
2018-Aug-03 03:31N 35°06' E 129°06'0 0.0
2018-Aug-03 03:01N 35°06' E 129°06'0 0.0
2018-Aug-03 02:31N 35°06' E 129°06'0 0.0
2018-Aug-03 02:01N 35°06' E 129°06'0 0.0
2018-Aug-03 01:31N 35°06' E 129°06'0 0.0
2018-Aug-03 01:00N 35°06' E 129°06'0 0.0
2018-Aug-03 00:31N 35°06' E 129°06'0 0.0
2018-Aug-03 00:01N 35°06' E 129°06'0 0.0
2018-Aug-02 23:31N 35°06' E 129°06'0 0.0
2018-Aug-02 23:01N 35°06' E 129°06'0 0.0
2018-Aug-02 22:31N 35°06' E 129°06'0 0.0
2018-Aug-02 22:00N 35°06' E 129°06'0 0.0
2018-Aug-02 21:30N 35°06' E 129°06'0 0.0
2018-Aug-02 21:01N 35°06' E 129°06'0 0.0
2018-Aug-02 20:31N 35°06' E 129°06'0 0.0
2018-Aug-02 20:01N 35°06' E 129°06'0 0.0
2018-Aug-02 19:30N 35°06' E 129°06'0 0.0
2018-Aug-02 19:01N 35°06' E 129°06'0 0.0
2018-Aug-02 18:31N 35°06' E 129°06'2 3.9
2018-Aug-02 18:01N 35°05' E 129°08'4 7.8
2018-Aug-02 17:30N 35°01' E 129°10'611.0
2018-Aug-02 16:59N 34°56' E 129°09'431 8.3
2018-Jul-31 13:01N 31°19' E 121°44'011.9
2018-Jul-31 13:00N 31°19' E 121°44'612.5
2018-Jul-31 12:31N 31°16' E 121°51'611.8
2018-Jul-31 12:00N 31°15' E 121°58'710.6
2018-Jul-31 11:22N 31°14' E 122°06'1311.8
2018-Jul-31 10:16N 31°06' E 122°18'40713.1
2018-Jul-30 03:12N 24°45' E 119°38'818.0
2018-Jul-30 02:44N 24°40' E 119°31'2118.0
2018-Jul-30 01:33N 24°24' E 119°14'118.2
2018-Jul-30 01:29N 24°24' E 119°13'918.1
2018-Jul-30 01:00N 24°17' E 119°07'918.1
2018-Jul-30 00:30N 24°11' E 118°60'1218.8
2018-Jul-29 23:52N 24°03' E 118°51'718.3
2018-Jul-29 23:28N 23°57' E 118°45'918.3
2018-Jul-29 22:59N 23°51' E 118°38'918.1
2018-Jul-29 22:30N 23°45' E 118°32'1717.8
2018-Jul-29 21:35N 23°33' E 118°19'118.2
2018-Jul-29 21:30N 23°33' E 118°18'1117.8
2018-Jul-29 20:55N 23°27' E 118°08'817.5
2018-Jul-29 20:27N 23°23' E 118°00'817.4
2018-Jul-29 20:00N 23°19' E 117°53'  
Track history (hours):
 
Tides and Currents Weather Stations Pressure Air Temp Water Temp Dewpoint Dewpoint Depression Visibility Wind Speed Wind Dir Waves Ship Positions

As Constantina

Last reported at 2018-Aug-07 18:37 UTC. Time now 2018-Aug-14 23:42 UTC.
Position N 31°06' E 122°19'.

Length 733 m; draft 9.8 m.

Type: Ship (hazmat cat A). MMSI: 255806075.

Date/timePositionNaut miles runAvg speedWind from/ knotsBaromVisibWave heightAir tempDewpointWater temp
2018-Aug-07 18:37N 31°06' E 122°19'32 1.5
2018-Aug-06 21:18N 31°19' E 121°45'310.1
2018-Aug-06 20:59N 31°17' E 121°48'5 9.8
2018-Aug-06 20:28N 31°16' E 121°54'714.1
2018-Aug-06 20:00N 31°15' E 122°01'710.0
2018-Aug-06 19:19N 31°12' E 122°09'8 7.1
2018-Aug-06 18:13N 31°08' E 122°16'2 7.8
2018-Aug-06 18:00N 31°07' E 122°18'  
2018-Aug-03 20:55N 35°00' E 129°10'410.2
2018-Aug-03 20:30N 35°04' E 129°07'2 4.3
2018-Aug-03 20:01N 35°06' E 129°06'0 0.0
2018-Aug-03 19:31N 35°06' E 129°06'0 0.0
2018-Aug-03 19:01N 35°06' E 129°06'0 0.0
2018-Aug-03 18:31N 35°06' E 129°06'0 0.0
2018-Aug-03 18:01N 35°06' E 129°06'0 0.0
2018-Aug-03 17:31N 35°06' E 129°06'0 0.0
2018-Aug-03 17:01N 35°06' E 129°06'0 0.0
2018-Aug-03 16:31N 35°06' E 129°06'0 0.0
2018-Aug-03 16:01N 35°06' E 129°06'0 0.0
2018-Aug-03 15:31N 35°06' E 129°06'0 0.0
2018-Aug-03 15:01N 35°06' E 129°06'0 0.0
2018-Aug-03 14:31N 35°06' E 129°06'0 0.0
2018-Aug-03 14:01N 35°06' E 129°06'0 0.0
2018-Aug-03 13:31N 35°06' E 129°06'0 0.0
2018-Aug-03 13:01N 35°06' E 129°06'0 0.0
2018-Aug-03 12:31N 35°06' E 129°06'0 0.0
2018-Aug-03 12:01N 35°06' E 129°06'0 0.0
2018-Aug-03 11:31N 35°06' E 129°06'0 0.0
2018-Aug-03 11:01N 35°06' E 129°06'0 0.0
2018-Aug-03 10:31N 35°06' E 129°06'0 0.0
2018-Aug-03 10:01N 35°06' E 129°06'0 0.0
2018-Aug-03 09:31N 35°06' E 129°06'0 0.0
2018-Aug-03 09:01N 35°06' E 129°06'0 0.0
2018-Aug-03 08:31N 35°06' E 129°06'0 0.0
2018-Aug-03 08:01N 35°06' E 129°06'0 0.0
2018-Aug-03 07:31N 35°06' E 129°06'0 0.0
2018-Aug-03 07:00N 35°06' E 129°06'0 0.0
2018-Aug-03 06:30N 35°06' E 129°06'0 0.0
2018-Aug-03 06:01N 35°06' E 129°06'0 0.0
2018-Aug-03 05:31N 35°06' E 129°06'0 0.0
2018-Aug-03 05:01N 35°06' E 129°06'0 0.0
2018-Aug-03 04:31N 35°06' E 129°06'0 0.0
2018-Aug-03 04:01N 35°06' E 129°06'0 0.0
2018-Aug-03 03:31N 35°06' E 129°06'0 0.0
2018-Aug-03 03:01N 35°06' E 129°06'0 0.0
2018-Aug-03 02:31N 35°06' E 129°06'0 0.0
2018-Aug-03 02:01N 35°06' E 129°06'0 0.0
2018-Aug-03 01:31N 35°06' E 129°06'0 0.0
2018-Aug-03 01:00N 35°06' E 129°06'0 0.0
2018-Aug-03 00:31N 35°06' E 129°06'0 0.0
2018-Aug-03 00:01N 35°06' E 129°06'0 0.0
2018-Aug-02 23:31N 35°06' E 129°06'0 0.0
2018-Aug-02 23:01N 35°06' E 129°06'0 0.0
2018-Aug-02 22:31N 35°06' E 129°06'0 0.0
2018-Aug-02 22:00N 35°06' E 129°06'0 0.0
2018-Aug-02 21:30N 35°06' E 129°06'0 0.0
2018-Aug-02 21:01N 35°06' E 129°06'0 0.0
2018-Aug-02 20:31N 35°06' E 129°06'0 0.0
2018-Aug-02 20:01N 35°06' E 129°06'0 0.0
2018-Aug-02 19:30N 35°06' E 129°06'0 0.0
2018-Aug-02 19:01N 35°06' E 129°06'0 0.0
2018-Aug-02 18:31N 35°06' E 129°06'2 3.9
2018-Aug-02 18:01N 35°05' E 129°08'4 7.8
2018-Aug-02 17:30N 35°01' E 129°10'611.0
2018-Aug-02 16:59N 34°56' E 129°09'431 8.3
2018-Jul-31 13:01N 31°19' E 121°44'011.9
2018-Jul-31 13:00N 31°19' E 121°44'612.5
2018-Jul-31 12:31N 31°16' E 121°51'611.8
2018-Jul-31 12:00N 31°15' E 121°58'710.6
2018-Jul-31 11:22N 31°14' E 122°06'1311.8
2018-Jul-31 10:16N 31°06' E 122°18'40713.1
2018-Jul-30 03:12N 24°45' E 119°38'818.0
2018-Jul-30 02:44N 24°40' E 119°31'2118.0
2018-Jul-30 01:33N 24°24' E 119°14'118.2
2018-Jul-30 01:29N 24°24' E 119°13'918.1
2018-Jul-30 01:00N 24°17' E 119°07'918.1
2018-Jul-30 00:30N 24°11' E 118°60'1218.8
2018-Jul-29 23:52N 24°03' E 118°51'718.3
2018-Jul-29 23:28N 23°57' E 118°45'918.3
2018-Jul-29 22:59N 23°51' E 118°38'918.1
2018-Jul-29 22:30N 23°45' E 118°32'1717.8
2018-Jul-29 21:35N 23°33' E 118°19'118.2
2018-Jul-29 21:30N 23°33' E 118°18'1117.8
2018-Jul-29 20:55N 23°27' E 118°08'817.5
2018-Jul-29 20:27N 23°23' E 118°00'817.4
2018-Jul-29 20:00N 23°19' E 117°53'  

Dump ship's entire track history